createdAt,value
2023-01-12T00:04:40.957Z,15.23
2023-01-12T00:07:16.506Z,6.95
2023-01-12T00:09:55.624Z,10.15
2023-01-12T00:19:56.323Z,17.50
2023-01-12T00:25:36.026Z,14.75
2023-01-12T00:28:05.792Z,8.40
2023-01-12T00:34:22.512Z,10.30
2023-01-12T00:44:56.585Z,3.28
2023-01-12T00:48:22.583Z,4.93
2023-01-12T00:50:48.502Z,7.90
2023-01-12T00:53:32.979Z,5.50
2023-01-12T00:56:06.308Z,10.48
2023-01-12T00:58:41.658Z,6.97
2023-01-12T01:01:38.945Z,10.32
2023-01-12T01:07:36.273Z,6.75
2023-01-12T01:21:39.078Z,14.75
2023-01-12T01:28:01.966Z,2.92
2023-01-12T01:30:38.794Z,11.50
2023-01-12T01:33:12.571Z,9.50
2023-01-12T01:35:45.479Z,14.02
2023-01-12T01:38:41.657Z,13.95
2023-01-12T01:41:24.744Z,15.00
2023-01-12T01:44:28.681Z,11.20
2023-01-12T01:47:49.434Z,13.07
2023-01-12T01:54:53.793Z,6.93
2023-01-12T01:57:22.124Z,8.48
2023-01-12T01:59:53.986Z,7.28
2023-01-12T02:02:21.272Z,3.20
2023-01-12T02:04:48.367Z,8.82
2023-01-12T02:07:23.848Z,3.88
2023-01-12T02:09:53.593Z,11.73
2023-01-12T02:12:50.546Z,10.45
2023-01-12T02:15:36.050Z,5.57
2023-01-12T02:18:11.950Z,4.80
2023-01-12T02:20:48.595Z,5.25
2023-01-12T02:23:57.145Z,5.78
2023-01-12T02:27:03.972Z,1.45
2023-01-12T02:29:49.988Z,6.88
2023-01-12T02:33:00.652Z,2.13
2023-01-12T02:35:49.530Z,1.33
2023-01-12T02:38:45.946Z,3.08
2023-01-12T02:41:58.883Z,1.33
2023-01-12T02:44:32.776Z,11.20
2023-01-12T02:49:31.157Z,10.75
2023-01-12T02:52:00.371Z,9.48
2023-01-12T02:54:27.560Z,1.83
2023-01-12T02:56:58.293Z,5.55
2023-01-12T02:59:29.893Z,5.72
2023-01-12T03:02:24.897Z,8.50
2023-01-12T03:05:10.994Z,5.40
2023-01-12T03:07:43.544Z,2.33
2023-01-12T03:10:19.631Z,4.32
2023-01-12T03:12:55.231Z,7.43
2023-01-12T03:15:38.210Z,9.23
2023-01-12T03:18:38.470Z,7.97
2023-01-12T03:21:50.325Z,5.28
2023-01-12T03:24:28.126Z,6.05
2023-01-12T03:27:15.624Z,8.88
2023-01-12T03:29:58.981Z,7.13
2023-01-12T03:32:26.055Z,4.47
2023-01-12T03:35:05.992Z,5.97
2023-01-12T03:38:07.331Z,2.25
2023-01-12T03:40:56.356Z,6.88
2023-01-12T03:43:31.436Z,3.50
2023-01-12T03:46:15.704Z,2.83
2023-01-12T03:48:56.437Z,4.22
2023-01-12T03:51:39.262Z,5.82
2023-01-12T03:54:15.771Z,0.45
2023-01-12T03:56:43.190Z,0.93
2023-01-12T03:59:16.978Z,3.67
2023-01-12T04:01:49.010Z,6.13
2023-01-12T04:04:16.507Z,0.60
2023-01-12T04:06:50.373Z,6.00
2023-01-12T04:12:12.123Z,2.25
2023-01-12T04:14:52.535Z,3.72
2023-01-12T04:17:25.631Z,3.55
2023-01-12T04:19:52.824Z,4.70
2023-01-12T04:22:38.257Z,4.80
2023-01-12T04:25:16.671Z,4.15
2023-01-12T04:27:51.082Z,4.70
2023-01-12T04:30:32.117Z,5.32
2023-01-12T04:33:02.415Z,6.20
2023-01-12T04:35:33.444Z,2.22
2023-01-12T04:38:12.855Z,4.63
2023-01-12T04:40:55.823Z,1.80
2023-01-12T04:43:29.321Z,5.13
2023-01-12T04:46:01.043Z,1.02
2023-01-12T04:48:28.005Z,5.30
2023-01-12T04:50:58.288Z,1.48
2023-01-12T04:53:33.182Z,0.90
2023-01-12T04:56:04.544Z,3.03
2023-01-12T04:58:35.577Z,2.13
2023-01-12T05:01:18.172Z,3.70
2023-01-12T05:03:49.692Z,0.60
2023-01-12T05:06:21.613Z,0.47
2023-01-12T05:09:23.448Z,2.75
2023-01-12T05:11:50.654Z,2.30
2023-01-12T05:14:22.854Z,0.85
2023-01-12T05:16:49.836Z,0.35
2023-01-12T05:19:33.716Z,2.38
2023-01-12T05:22:03.546Z,3.28
2023-01-12T05:24:34.341Z,3.40
2023-01-12T05:27:01.498Z,1.05
2023-01-12T05:29:28.775Z,5.47
2023-01-12T05:31:56.758Z,2.42
2023-01-12T05:34:23.774Z,3.58
2023-01-12T05:36:53.596Z,3.03
2023-01-12T05:39:29.670Z,0.88
2023-01-12T05:42:25.782Z,2.13
2023-01-12T05:44:58.390Z,0.50
2023-01-12T05:47:29.660Z,0.80
2023-01-12T05:50:02.499Z,1.70
2023-01-12T05:52:30.704Z,2.28
2023-01-12T05:55:03.226Z,2.95
2023-01-12T05:57:44.119Z,3.30
2023-01-12T06:00:21.211Z,4.28
2023-01-12T06:02:48.661Z,3.78
2023-01-12T06:05:40.106Z,3.80
2023-01-12T06:08:18.994Z,3.22
2023-01-12T06:10:52.837Z,0.77
2023-01-12T06:16:11.587Z,2.42
2023-01-12T06:19:01.354Z,4.70
2023-01-12T06:22:26.587Z,1.55
2023-01-12T06:24:33.420Z,1.40
2023-01-12T06:27:12.242Z,5.15
2023-01-12T06:29:49.847Z,1.30
2023-01-12T06:32:25.016Z,0.75
2023-01-12T06:35:06.867Z,1.45
2023-01-12T06:37:46.325Z,3.50
2023-01-12T06:40:16.241Z,2.70
2023-01-12T06:42:48.525Z,1.30
2023-01-12T06:45:15.593Z,3.78
2023-01-12T06:47:49.882Z,2.15
2023-01-12T06:50:22.999Z,2.20
2023-01-12T06:52:54.837Z,2.75
2023-01-12T06:55:22.197Z,2.30
2023-01-12T06:57:52.456Z,3.50
2023-01-12T07:00:28.967Z,2.15
2023-01-12T07:03:01.943Z,1.90
2023-01-12T07:05:28.850Z,0.93
2023-01-12T07:11:04.406Z,2.40
2023-01-12T07:13:31.903Z,1.77
2023-01-12T07:16:07.546Z,0.50
2023-01-12T07:18:34.919Z,3.03
2023-01-12T07:21:07.793Z,2.13
2023-01-12T07:23:43.878Z,1.13
2023-01-12T07:26:20.016Z,0.85
2023-01-12T07:28:49.859Z,3.42
2023-01-12T07:31:17.186Z,1.00
2023-01-12T07:33:44.294Z,6.32
2023-01-12T07:39:02.319Z,11.10
2023-01-12T07:41:50.028Z,11.48
2023-01-12T07:44:30.928Z,3.55
2023-01-12T07:47:03.052Z,6.35
2023-01-12T07:49:39.772Z,4.55
2023-01-12T07:52:15.583Z,2.25
2023-01-12T07:54:45.533Z,4.32
2023-01-12T07:57:21.400Z,2.65
2023-01-12T07:59:49.283Z,3.10
2023-01-12T08:05:08.433Z,2.83
2023-01-12T08:07:38.333Z,3.08
2023-01-12T08:10:11.906Z,3.60
2023-01-12T08:12:44.589Z,3.60
2023-01-12T08:15:25.759Z,1.80
2023-01-12T08:20:47.682Z,5.07
2023-01-12T08:23:27.247Z,4.53
2023-01-12T08:26:18.805Z,2.88
2023-01-12T08:28:55.445Z,2.50
2023-01-12T08:34:29.276Z,2.00
2023-01-12T08:37:09.699Z,4.28
2023-01-12T08:43:40.974Z,4.53
2023-01-12T08:46:31.643Z,1.65
2023-01-12T08:51:48.978Z,0.77
2023-01-12T08:54:21.793Z,2.45
2023-01-12T08:57:01.083Z,1.58
2023-01-12T08:59:39.467Z,2.65
2023-01-12T09:02:09.027Z,2.63
2023-01-12T09:07:52.786Z,2.45
2023-01-12T09:10:22.456Z,1.35
2023-01-12T09:18:57.932Z,4.50
2023-01-12T09:21:32.100Z,5.95
2023-01-12T09:24:09.619Z,6.13
2023-01-12T09:26:46.865Z,2.05
2023-01-12T09:29:18.257Z,2.45
2023-01-12T09:34:44.829Z,7.82
2023-01-12T09:42:01.840Z,2.83
2023-01-12T09:45:07.435Z,9.95
2023-01-12T09:48:57.222Z,1.00
2023-01-12T10:07:05.999Z,4.28
2023-01-12T10:13:08.561Z,3.03
2023-01-12T10:16:11.679Z,1.33
2023-01-12T10:18:58.000Z,2.58
2023-01-12T10:25:15.393Z,1.13
2023-01-12T10:35:13.204Z,1.00
2023-01-12T10:56:21.763Z,0.20
2023-01-12T10:59:27.329Z,1.85
2023-01-12T11:02:23.940Z,0.80
2023-01-12T11:06:06.382Z,5.25
2023-01-12T11:08:59.601Z,2.40
2023-01-12T11:11:32.132Z,2.00
2023-01-12T11:14:24.149Z,4.78
2023-01-12T11:17:03.684Z,3.03
2023-01-12T11:20:13.654Z,3.20
2023-01-12T11:23:07.800Z,0.40
2023-01-12T11:26:20.932Z,0.38
2023-01-12T11:36:42.427Z,0.30
2023-01-12T11:43:29.866Z,0.45
2023-01-12T11:50:27.916Z,3.58
2023-01-12T11:56:25.206Z,1.10
2023-01-12T12:02:24.262Z,1.15
2023-01-12T12:07:45.679Z,2.25
2023-01-12T12:10:43.555Z,0.90
2023-01-12T12:13:49.618Z,2.53
2023-01-12T12:20:12.527Z,0.63
2023-01-12T12:23:26.985Z,5.32
2023-01-12T12:26:28.674Z,1.23
2023-01-12T12:33:18.172Z,1.95
2023-01-12T12:36:39.300Z,1.38
2023-01-12T12:39:50.885Z,0.95
2023-01-12T12:43:00.523Z,0.50
2023-01-12T12:45:53.034Z,1.10
2023-01-12T12:49:25.676Z,1.17
2023-01-12T12:52:11.738Z,0.68
2023-01-12T12:59:04.603Z,2.00
2023-01-12T13:05:56.205Z,0.82
2023-01-12T13:16:08.380Z,1.00
2023-01-12T13:23:49.102Z,2.22
2023-01-12T13:26:37.977Z,1.65
2023-01-12T13:32:54.564Z,5.05
2023-01-12T13:35:42.991Z,2.00
2023-01-12T13:42:04.198Z,2.10
2023-01-12T13:44:45.802Z,0.65
2023-01-12T13:47:37.695Z,0.75
2023-01-12T13:50:36.002Z,0.60
2023-01-12T13:54:00.869Z,0.65
2023-01-12T13:56:52.824Z,0.65
2023-01-12T13:59:50.505Z,1.80
2023-01-12T14:32:05.023Z,4.22
2023-01-12T14:42:21.821Z,1.77
2023-01-12T14:48:31.217Z,4.15
2023-01-12T14:54:50.395Z,2.15
2023-01-12T14:57:54.524Z,1.60
2023-01-12T15:00:41.648Z,5.03
2023-01-12T15:03:39.344Z,6.65
2023-01-12T15:13:34.421Z,3.67
2023-01-12T15:19:41.175Z,2.40
2023-01-12T15:26:25.426Z,2.22
2023-01-12T15:29:10.359Z,1.20
2023-01-12T15:35:42.494Z,0.55
2023-01-12T15:38:18.440Z,1.10
2023-01-12T15:41:05.185Z,1.75
2023-01-12T15:47:26.093Z,3.13
2023-01-12T15:50:11.974Z,7.30
2023-01-12T15:52:48.087Z,7.05
2023-01-12T15:55:26.688Z,3.35
2023-01-12T15:57:57.330Z,3.15
2023-01-12T16:00:44.919Z,2.83
2023-01-12T16:04:09.589Z,1.42
2023-01-12T16:06:55.072Z,4.68
2023-01-12T16:09:30.637Z,2.53
2023-01-12T16:12:15.852Z,1.55
2023-01-12T16:14:54.399Z,2.92
2023-01-12T16:17:24.738Z,2.03
2023-01-12T16:20:10.842Z,2.38
2023-01-12T16:25:39.681Z,6.20
2023-01-12T16:28:07.427Z,5.57
2023-01-12T16:30:38.417Z,4.68
2023-01-12T16:33:12.594Z,2.05
2023-01-12T16:35:39.678Z,2.50
2023-01-12T16:42:03.863Z,6.95
2023-01-12T16:44:37.437Z,8.05
2023-01-12T16:47:18.245Z,3.22
2023-01-12T16:49:47.902Z,7.22
2023-01-12T16:52:25.979Z,2.35
2023-01-12T16:54:57.850Z,0.98
2023-01-12T16:57:35.810Z,0.50
2023-01-12T17:00:06.386Z,2.72
2023-01-12T17:02:33.608Z,5.70
2023-01-12T17:05:01.918Z,3.70
2023-01-12T17:07:29.142Z,2.05
2023-01-12T17:09:57.355Z,5.80
2023-01-12T17:12:27.358Z,6.03
2023-01-12T17:14:54.797Z,4.63
2023-01-12T17:17:22.231Z,7.53
2023-01-12T17:19:49.398Z,8.65
2023-01-12T17:22:20.889Z,8.43
2023-01-12T17:24:50.475Z,4.80
2023-01-12T17:27:17.796Z,6.20
2023-01-12T17:29:44.808Z,6.03
2023-01-12T17:32:14.539Z,3.42
2023-01-12T17:34:43.433Z,6.05
2023-01-12T17:37:10.794Z,9.18
2023-01-12T17:39:40.531Z,8.30
2023-01-12T17:42:26.036Z,8.40
2023-01-12T17:44:53.429Z,8.00
2023-01-12T17:47:20.538Z,12.82
2023-01-12T17:49:59.174Z,13.32
2023-01-12T17:52:26.567Z,18.33
2023-01-12T17:55:05.699Z,14.50
2023-01-12T17:57:44.646Z,17.27
2023-01-12T18:44:01.751Z,9.02
2023-01-12T18:56:33.082Z,11.70
2023-01-12T19:03:08.047Z,25.42
2023-01-12T19:06:01.583Z,25.63
2023-01-12T19:09:30.089Z,10.35
2023-01-12T19:11:59.649Z,7.13
2023-01-12T19:17:33.147Z,14.95
2023-01-12T19:20:06.408Z,15.02
2023-01-12T19:22:52.141Z,12.73
2023-01-12T19:25:50.171Z,27.08
2023-01-12T19:28:37.716Z,20.05
2023-01-12T19:31:12.065Z,18.67
2023-01-12T19:33:45.379Z,20.67
2023-01-12T19:36:15.697Z,14.50
2023-01-12T19:38:44.411Z,21.38
2023-01-12T19:41:13.373Z,17.02
2023-01-12T19:43:45.613Z,14.70
2023-01-12T19:46:15.670Z,18.27
2023-01-12T19:48:43.132Z,16.73
2023-01-12T19:51:13.383Z,18.85
2023-01-12T19:53:40.619Z,11.65
2023-01-12T19:56:22.280Z,28.88
2023-01-12T19:58:50.918Z,13.02
2023-01-12T20:01:21.960Z,12.15
2023-01-12T20:03:50.729Z,19.83
2023-01-12T20:06:22.037Z,13.57
2023-01-12T20:08:54.716Z,14.60
2023-01-12T20:11:21.864Z,16.92
2023-01-12T20:13:48.964Z,17.83
2023-01-12T20:16:16.108Z,23.45
2023-01-12T20:18:43.710Z,22.05
2023-01-12T20:21:13.026Z,17.13
2023-01-12T20:23:40.194Z,24.00
2023-01-12T20:26:11.622Z,18.05
2023-01-12T20:28:38.859Z,18.10
2023-01-12T20:31:13.673Z,22.88
2023-01-12T20:38:21.321Z,11.13
2023-01-12T20:41:20.508Z,14.82
2023-01-12T20:43:51.769Z,15.50
2023-01-12T20:46:33.096Z,13.13
2023-01-12T20:49:12.496Z,12.23
2023-01-12T20:53:08.526Z,12.25
2023-01-12T20:55:18.575Z,6.22
2023-01-12T20:57:51.866Z,10.75
2023-01-12T21:00:35.952Z,11.30
2023-01-12T21:03:11.644Z,16.58
2023-01-12T21:05:56.370Z,12.15
2023-01-12T21:08:34.321Z,13.88
2023-01-12T21:11:01.867Z,10.60
2023-01-12T21:13:48.794Z,12.80
2023-01-12T21:16:18.328Z,16.45
2023-01-12T21:18:58.525Z,17.15
2023-01-12T21:21:34.841Z,10.35
2023-01-12T21:24:02.349Z,24.45
2023-01-12T21:26:31.991Z,17.45
2023-01-12T21:29:01.605Z,17.27
2023-01-12T21:31:55.239Z,14.90
2023-01-12T21:34:45.411Z,16.53
2023-01-12T21:40:40.235Z,14.05
2023-01-12T21:43:10.446Z,17.10
2023-01-12T21:45:41.268Z,13.90
2023-01-12T21:48:09.136Z,15.93
2023-01-12T21:50:37.728Z,14.98
2023-01-12T21:53:10.615Z,18.33
2023-01-12T21:55:38.022Z,8.15
2023-01-12T21:58:07.615Z,26.73
2023-01-12T22:00:34.781Z,16.52
2023-01-12T22:03:01.822Z,12.70
2023-01-12T22:05:34.807Z,22.15
2023-01-12T22:08:08.022Z,11.77
2023-01-12T22:10:35.178Z,18.30
2023-01-12T22:13:17.572Z,23.45
2023-01-12T22:15:52.302Z,14.45
2023-01-12T22:18:22.827Z,11.02
2023-01-12T22:23:52.952Z,11.43
2023-01-12T22:34:52.241Z,15.65
2023-01-12T22:48:46.529Z,12.98
2023-01-12T22:52:12.458Z,12.50
2023-01-12T22:55:02.577Z,17.30
2023-01-12T23:00:47.167Z,7.47
2023-01-12T23:03:22.664Z,18.38
2023-01-12T23:06:07.583Z,15.95
2023-01-12T23:08:49.053Z,17.23
2023-01-12T23:12:14.477Z,11.80
2023-01-12T23:25:48.562Z,12.68
2023-01-12T23:28:41.646Z,9.50
2023-01-12T23:31:13.874Z,8.18
2023-01-12T23:33:52.128Z,15.15
2023-01-12T23:39:17.515Z,7.50
2023-01-12T23:42:00.960Z,13.45
2023-01-12T23:47:09.092Z,11.57
2023-01-12T23:49:43.667Z,12.27
2023-01-12T23:55:58.361Z,8.57
2023-01-12T23:58:25.629Z,12.55
